sensor_id;sensor_type;location;lat;lon;timestamp;temperature;humidity
66144;SHT31;52947;50.842;6.084;2023-02-23T00:01:25;8.99;91.80
66144;SHT31;52947;50.842;6.084;2023-02-23T00:03:56;8.97;91.75
66144;SHT31;52947;50.842;6.084;2023-02-23T00:06:25;8.97;91.79
66144;SHT31;52947;50.842;6.084;2023-02-23T00:08:53;8.97;91.76
66144;SHT31;52947;50.842;6.084;2023-02-23T00:11:21;8.93;91.81
66144;SHT31;52947;50.842;6.084;2023-02-23T00:13:49;8.96;91.79
66144;SHT31;52947;50.842;6.084;2023-02-23T00:16:19;8.93;91.73
66144;SHT31;52947;50.842;6.084;2023-02-23T00:18:50;8.83;91.98
66144;SHT31;52947;50.842;6.084;2023-02-23T00:21:22;8.86;91.97
66144;SHT31;52947;50.842;6.084;2023-02-23T00:23:51;8.83;92.17
66144;SHT31;52947;50.842;6.084;2023-02-23T00:26:21;8.82;92.15
66144;SHT31;52947;50.842;6.084;2023-02-23T00:28:51;8.78;92.17
66144;SHT31;52947;50.842;6.084;2023-02-23T00:31:20;8.82;92.28
66144;SHT31;52947;50.842;6.084;2023-02-23T00:33:52;8.80;92.35
66144;SHT31;52947;50.842;6.084;2023-02-23T00:36:24;8.82;92.05
66144;SHT31;52947;50.842;6.084;2023-02-23T00:38:53;8.80;91.88
66144;SHT31;52947;50.842;6.084;2023-02-23T00:41:21;8.78;91.68
66144;SHT31;52947;50.842;6.084;2023-02-23T00:43:54;8.76;91.74
66144;SHT31;52947;50.842;6.084;2023-02-23T00:46:25;8.76;91.69
66144;SHT31;52947;50.842;6.084;2023-02-23T00:48:56;8.72;91.53
66144;SHT31;52947;50.842;6.084;2023-02-23T00:51:27;8.72;91.77
66144;SHT31;52947;50.842;6.084;2023-02-23T00:53:59;8.66;91.64
66144;SHT31;52947;50.842;6.084;2023-02-23T00:56:27;8.56;91.56
66144;SHT31;52947;50.842;6.084;2023-02-23T00:58:56;8.55;91.81
66144;SHT31;52947;50.842;6.084;2023-02-23T01:01:25;8.56;91.73
66144;SHT31;52947;50.842;6.084;2023-02-23T01:03:53;8.59;91.88
66144;SHT31;52947;50.842;6.084;2023-02-23T01:06:23;8.65;91.54
66144;SHT31;52947;50.842;6.084;2023-02-23T01:08:52;8.65;91.47
66144;SHT31;52947;50.842;6.084;2023-02-23T01:11:24;8.76;92.61
66144;SHT31;52947;50.842;6.084;2023-02-23T01:13:55;8.72;91.95
66144;SHT31;52947;50.842;6.084;2023-02-23T01:16:24;8.68;91.81
66144;SHT31;52947;50.842;6.084;2023-02-23T01:18:55;8.66;91.72
66144;SHT31;52947;50.842;6.084;2023-02-23T01:21:23;8.69;91.67
66144;SHT31;52947;50.842;6.084;2023-02-23T01:23:54;8.69;91.60
66144;SHT31;52947;50.842;6.084;2023-02-23T01:26:23;8.66;91.62
66144;SHT31;52947;50.842;6.084;2023-02-23T01:28:55;8.66;91.73
66144;SHT31;52947;50.842;6.084;2023-02-23T01:31:24;8.65;91.65
66144;SHT31;52947;50.842;6.084;2023-02-23T01:33:53;8.65;91.72
66144;SHT31;52947;50.842;6.084;2023-02-23T01:36:21;8.69;91.67
66144;SHT31;52947;50.842;6.084;2023-02-23T01:38:51;8.68;91.67
66144;SHT31;52947;50.842;6.084;2023-02-23T01:41:23;8.62;91.46
66144;SHT31;52947;50.842;6.084;2023-02-23T01:43:54;8.71;91.62
66144;SHT31;52947;50.842;6.084;2023-02-23T01:46:23;8.66;91.38
66144;SHT31;52947;50.842;6.084;2023-02-23T01:48:53;9.79;96.04
66144;SHT31;52947;50.842;6.084;2023-02-23T01:51:24;10.38;94.62
66144;SHT31;52947;50.842;6.084;2023-02-23T01:53:59;11.11;93.60
66144;SHT31;52947;50.842;6.084;2023-02-23T01:56:30;11.48;90.39
66144;SHT31;52947;50.842;6.084;2023-02-23T01:59:03;11.78;88.74
66144;SHT31;52947;50.842;6.084;2023-02-23T02:01:33;11.85;87.71
66144;SHT31;52947;50.842;6.084;2023-02-23T02:04:02;12.02;85.63
66144;SHT31;52947;50.842;6.084;2023-02-23T02:06:33;12.12;85.73
66144;SHT31;52947;50.842;6.084;2023-02-23T02:09:06;12.29;85.55
66144;SHT31;52947;50.842;6.084;2023-02-23T02:11:37;12.50;84.30
66144;SHT31;52947;50.842;6.084;2023-02-23T02:14:09;12.85;83.33
66144;SHT31;52947;50.842;6.084;2023-02-23T02:16:51;13.11;82.32
66144;SHT31;52947;50.842;6.084;2023-02-23T02:19:48;12.72;80.30
66144;SHT31;52947;50.842;6.084;2023-02-23T02:22:40;12.78;82.47
66144;SHT31;52947;50.842;6.084;2023-02-23T02:25:36;12.94;82.34
66144;SHT31;52947;50.842;6.084;2023-02-23T02:31:39;12.68;82.54
66144;SHT31;52947;50.842;6.084;2023-02-23T02:37:25;12.26;82.73
66144;SHT31;52947;50.842;6.084;2023-02-23T02:40:06;11.93;82.98
66144;SHT31;52947;50.842;6.084;2023-02-23T02:42:56;11.55;82.92
66144;SHT31;52947;50.842;6.084;2023-02-23T02:45:31;11.61;83.25
66144;SHT31;52947;50.842;6.084;2023-02-23T02:48:07;11.48;82.90
66144;SHT31;52947;50.842;6.084;2023-02-23T02:50:41;11.14;84.61
66144;SHT31;52947;50.842;6.084;2023-02-23T02:53:17;10.80;83.50
66144;SHT31;52947;50.842;6.084;2023-02-23T02:55:48;10.74;85.32
66144;SHT31;52947;50.842;6.084;2023-02-23T02:58:18;10.55;85.34
66144;SHT31;52947;50.842;6.084;2023-02-23T03:00:47;10.40;85.96
66144;SHT31;52947;50.842;6.084;2023-02-23T03:03:37;10.19;85.39
66144;SHT31;52947;50.842;6.084;2023-02-23T03:06:27;10.22;86.61
66144;SHT31;52947;50.842;6.084;2023-02-23T03:09:24;10.32;87.30
66144;SHT31;52947;50.842;6.084;2023-02-23T03:12:24;10.30;86.92
66144;SHT31;52947;50.842;6.084;2023-02-23T03:15:15;10.23;86.83
66144;SHT31;52947;50.842;6.084;2023-02-23T03:18:10;10.23;86.77
66144;SHT31;52947;50.842;6.084;2023-02-23T03:21:05;10.26;86.96
66144;SHT31;52947;50.842;6.084;2023-02-23T03:23:59;10.57;86.38
66144;SHT31;52947;50.842;6.084;2023-02-23T03:26:54;10.69;86.39
66144;SHT31;52947;50.842;6.084;2023-02-23T03:29:47;10.80;85.65
66144;SHT31;52947;50.842;6.084;2023-02-23T03:32:39;10.96;85.15
66144;SHT31;52947;50.842;6.084;2023-02-23T03:35:31;10.66;85.29
66144;SHT31;52947;50.842;6.084;2023-02-23T03:38:22;10.56;85.14
66144;SHT31;52947;50.842;6.084;2023-02-23T03:41:10;10.53;85.73
66144;SHT31;52947;50.842;6.084;2023-02-23T03:44:03;10.64;86.25
66144;SHT31;52947;50.842;6.084;2023-02-23T03:46:50;10.67;84.71
66144;SHT31;52947;50.842;6.084;2023-02-23T03:49:38;10.71;84.37
66144;SHT31;52947;50.842;6.084;2023-02-23T03:52:33;10.69;86.09
66144;SHT31;52947;50.842;6.084;2023-02-23T03:55:23;10.90;86.17
66144;SHT31;52947;50.842;6.084;2023-02-23T03:58:12;11.03;85.13
66144;SHT31;52947;50.842;6.084;2023-02-23T04:01:02;11.14;84.30
66144;SHT31;52947;50.842;6.084;2023-02-23T04:03:49;11.28;85.34
66144;SHT31;52947;50.842;6.084;2023-02-23T04:06:39;11.25;84.08
66144;SHT31;52947;50.842;6.084;2023-02-23T04:09:26;11.15;84.52
66144;SHT31;52947;50.842;6.084;2023-02-23T04:12:16;11.07;83.93
66144;SHT31;52947;50.842;6.084;2023-02-23T04:15:10;11.21;85.14
66144;SHT31;52947;50.842;6.084;2023-02-23T04:17:40;11.25;84.30
66144;SHT31;52947;50.842;6.084;2023-02-23T04:20:11;11.00;83.73
66144;SHT31;52947;50.842;6.084;2023-02-23T04:22:39;11.30;85.04
66144;SHT31;52947;50.842;6.084;2023-02-23T04:25:07;11.39;84.26
66144;SHT31;52947;50.842;6.084;2023-02-23T04:27:37;11.58;83.68
66144;SHT31;52947;50.842;6.084;2023-02-23T04:30:06;11.65;83.14
66144;SHT31;52947;50.842;6.084;2023-02-23T04:32:38;11.36;83.11
66144;SHT31;52947;50.842;6.084;2023-02-23T04:35:08;11.07;83.28
66144;SHT31;52947;50.842;6.084;2023-02-23T04:37:36;10.87;84.57
66144;SHT31;52947;50.842;6.084;2023-02-23T04:40:05;10.87;84.83
66144;SHT31;52947;50.842;6.084;2023-02-23T04:42:33;11.25;84.63
66144;SHT31;52947;50.842;6.084;2023-02-23T04:45:01;11.28;83.34
66144;SHT31;52947;50.842;6.084;2023-02-23T04:47:28;11.43;83.86
66144;SHT31;52947;50.842;6.084;2023-02-23T04:49:58;11.48;83.56
66144;SHT31;52947;50.842;6.084;2023-02-23T04:52:26;11.65;83.33
66144;SHT31;52947;50.842;6.084;2023-02-23T04:54:53;11.62;82.72
66144;SHT31;52947;50.842;6.084;2023-02-23T04:57:21;11.65;82.78
66144;SHT31;52947;50.842;6.084;2023-02-23T04:59:49;11.83;82.68
66144;SHT31;52947;50.842;6.084;2023-02-23T05:02:17;11.41;83.37
66144;SHT31;52947;50.842;6.084;2023-02-23T05:04:45;11.36;82.78
66144;SHT31;52947;50.842;6.084;2023-02-23T05:07:14;10.90;82.91
66144;SHT31;52947;50.842;6.084;2023-02-23T05:09:42;11.07;84.34
66144;SHT31;52947;50.842;6.084;2023-02-23T05:12:10;11.34;83.75
66144;SHT31;52947;50.842;6.084;2023-02-23T05:14:38;11.58;83.90
66144;SHT31;52947;50.842;6.084;2023-02-23T05:17:06;11.48;83.43
66144;SHT31;52947;50.842;6.084;2023-02-23T05:19:34;11.39;83.53
66144;SHT31;52947;50.842;6.084;2023-02-23T05:22:02;11.35;82.83
66144;SHT31;52947;50.842;6.084;2023-02-23T05:24:32;11.25;83.45
66144;SHT31;52947;50.842;6.084;2023-02-23T05:27:00;11.35;82.77
66144;SHT31;52947;50.842;6.084;2023-02-23T05:29:27;11.35;83.44
66144;SHT31;52947;50.842;6.084;2023-02-23T05:31:55;11.42;83.19
66144;SHT31;52947;50.842;6.084;2023-02-23T05:34:23;11.68;83.25
66144;SHT31;52947;50.842;6.084;2023-02-23T05:36:51;11.79;82.24
66144;SHT31;52947;50.842;6.084;2023-02-23T05:39:20;11.61;83.23
66144;SHT31;52947;50.842;6.084;2023-02-23T05:41:50;11.72;82.05
66144;SHT31;52947;50.842;6.084;2023-02-23T05:44:17;11.71;81.51
66144;SHT31;52947;50.842;6.084;2023-02-23T05:46:45;11.59;82.94
66144;SHT31;52947;50.842;6.084;2023-02-23T05:49:13;11.62;81.64
66144;SHT31;52947;50.842;6.084;2023-02-23T05:51:41;11.57;82.33
66144;SHT31;52947;50.842;6.084;2023-02-23T05:54:09;11.22;81.55
66144;SHT31;52947;50.842;6.084;2023-02-23T05:56:37;11.18;83.72
66144;SHT31;52947;50.842;6.084;2023-02-23T05:59:07;11.42;82.99
66144;SHT31;52947;50.842;6.084;2023-02-23T06:01:34;11.61;83.28
66144;SHT31;52947;50.842;6.084;2023-02-23T06:04:02;11.66;82.77
66144;SHT31;52947;50.842;6.084;2023-02-23T06:06:31;11.42;81.77
66144;SHT31;52947;50.842;6.084;2023-02-23T06:08:59;11.83;82.67
66144;SHT31;52947;50.842;6.084;2023-02-23T06:11:28;11.55;81.81
66144;SHT31;52947;50.842;6.084;2023-02-23T06:13:57;11.76;82.75
66144;SHT31;52947;50.842;6.084;2023-02-23T06:16:27;11.63;82.77
66144;SHT31;52947;50.842;6.084;2023-02-23T06:18:55;11.57;82.37
66144;SHT31;52947;50.842;6.084;2023-02-23T06:21:23;11.72;82.51
66144;SHT31;52947;50.842;6.084;2023-02-23T06:23:51;11.55;81.32
66144;SHT31;52947;50.842;6.084;2023-02-23T06:26:19;11.39;82.40
66144;SHT31;52947;50.842;6.084;2023-02-23T06:28:47;11.24;83.21
66144;SHT31;52947;50.842;6.084;2023-02-23T06:31:16;11.18;83.63
66144;SHT31;52947;50.842;6.084;2023-02-23T06:33:45;11.48;83.11
66144;SHT31;52947;50.842;6.084;2023-02-23T06:36:14;11.48;82.70
66144;SHT31;52947;50.842;6.084;2023-02-23T06:38:42;11.63;82.68
66144;SHT31;52947;50.842;6.084;2023-02-23T06:41:10;11.51;82.75
66144;SHT31;52947;50.842;6.084;2023-02-23T06:43:38;11.46;82.70
66144;SHT31;52947;50.842;6.084;2023-02-23T06:46:06;11.48;83.12
66144;SHT31;52947;50.842;6.084;2023-02-23T06:48:34;11.48;83.27
66144;SHT31;52947;50.842;6.084;2023-02-23T06:51:04;11.48;82.70
66144;SHT31;52947;50.842;6.084;2023-02-23T06:53:32;11.49;83.51
66144;SHT31;52947;50.842;6.084;2023-02-23T06:56:00;11.36;81.70
66144;SHT31;52947;50.842;6.084;2023-02-23T06:58:29;11.46;83.58
66144;SHT31;52947;50.842;6.084;2023-02-23T07:00:57;11.46;82.74
66144;SHT31;52947;50.842;6.084;2023-02-23T07:03:25;11.58;83.09
66144;SHT31;52947;50.842;6.084;2023-02-23T07:05:53;11.62;82.41
66144;SHT31;52947;50.842;6.084;2023-02-23T07:08:23;11.31;82.54
66144;SHT31;52947;50.842;6.084;2023-02-23T07:10:50;11.28;82.96
66144;SHT31;52947;50.842;6.084;2023-02-23T07:13:18;11.36;83.35
66144;SHT31;52947;50.842;6.084;2023-02-23T07:15:47;11.52;82.85
66144;SHT31;52947;50.842;6.084;2023-02-23T07:18:15;11.46;83.35
66144;SHT31;52947;50.842;6.084;2023-02-23T07:20:43;11.45;82.80
66144;SHT31;52947;50.842;6.084;2023-02-23T07:23:12;11.57;83.37
66144;SHT31;52947;50.842;6.084;2023-02-23T07:25:41;11.82;82.60
66144;SHT31;52947;50.842;6.084;2023-02-23T07:28:09;11.73;82.19
66144;SHT31;52947;50.842;6.084;2023-02-23T07:30:39;11.63;83.02
66144;SHT31;52947;50.842;6.084;2023-02-23T07:33:07;11.58;83.44
66144;SHT31;52947;50.842;6.084;2023-02-23T07:35:35;11.62;83.08
66144;SHT31;52947;50.842;6.084;2023-02-23T07:38:03;11.62;82.98
66144;SHT31;52947;50.842;6.084;2023-02-23T07:40:33;11.76;82.50
66144;SHT31;52947;50.842;6.084;2023-02-23T07:43:02;11.83;82.45
66144;SHT31;52947;50.842;6.084;2023-02-23T07:45:30;11.75;82.35
66144;SHT31;52947;50.842;6.084;2023-02-23T07:47:58;11.55;81.82
66144;SHT31;52947;50.842;6.084;2023-02-23T07:50:26;11.52;82.67
66144;SHT31;52947;50.842;6.084;2023-02-23T07:52:54;11.43;82.69
66144;SHT31;52947;50.842;6.084;2023-02-23T07:55:22;11.34;83.60
66144;SHT31;52947;50.842;6.084;2023-02-23T07:57:50;11.57;82.85
66144;SHT31;52947;50.842;6.084;2023-02-23T08:00:22;11.87;82.55
66144;SHT31;52947;50.842;6.084;2023-02-23T08:02:52;11.93;82.12
66144;SHT31;52947;50.842;6.084;2023-02-23T08:05:20;11.94;82.39
66144;SHT31;52947;50.842;6.084;2023-02-23T08:07:51;12.03;81.82
66144;SHT31;52947;50.842;6.084;2023-02-23T08:10:19;11.89;81.49
66144;SHT31;52947;50.842;6.084;2023-02-23T08:12:47;11.97;82.64
66144;SHT31;52947;50.842;6.084;2023-02-23T08:15:15;11.92;81.99
66144;SHT31;52947;50.842;6.084;2023-02-23T08:17:45;11.75;82.47
66144;SHT31;52947;50.842;6.084;2023-02-23T08:20:13;11.63;81.92
66144;SHT31;52947;50.842;6.084;2023-02-23T08:22:41;11.54;83.29
66144;SHT31;52947;50.842;6.084;2023-02-23T08:25:16;11.76;82.70
66144;SHT31;52947;50.842;6.084;2023-02-23T08:27:44;11.58;82.99
66144;SHT31;52947;50.842;6.084;2023-02-23T08:30:13;11.51;83.92
66144;SHT31;52947;50.842;6.084;2023-02-23T08:32:41;11.42;83.23
66144;SHT31;52947;50.842;6.084;2023-02-23T08:35:11;11.04;82.57
66144;SHT31;52947;50.842;6.084;2023-02-23T08:37:39;10.69;83.78
66144;SHT31;52947;50.842;6.084;2023-02-23T08:40:09;10.42;84.24
66144;SHT31;52947;50.842;6.084;2023-02-23T08:42:41;10.09;85.51
66144;SHT31;52947;50.842;6.084;2023-02-23T08:45:10;9.88;85.87
66144;SHT31;52947;50.842;6.084;2023-02-23T08:47:38;9.70;86.00
66144;SHT31;52947;50.842;6.084;2023-02-23T08:50:06;9.57;87.25
66144;SHT31;52947;50.842;6.084;2023-02-23T08:52:38;9.48;87.44
66144;SHT31;52947;50.842;6.084;2023-02-23T08:55:06;9.37;88.13
66144;SHT31;52947;50.842;6.084;2023-02-23T08:57:36;9.27;88.69
66144;SHT31;52947;50.842;6.084;2023-02-23T09:00:05;9.23;88.86
66144;SHT31;52947;50.842;6.084;2023-02-23T09:02:39;9.15;89.32
66144;SHT31;52947;50.842;6.084;2023-02-23T09:05:08;9.17;89.23
66144;SHT31;52947;50.842;6.084;2023-02-23T09:07:38;9.15;89.62
66144;SHT31;52947;50.842;6.084;2023-02-23T09:10:11;9.03;89.75
66144;SHT31;52947;50.842;6.084;2023-02-23T09:12:39;8.95;90.30
66144;SHT31;52947;50.842;6.084;2023-02-23T09:15:08;8.99;90.31
66144;SHT31;52947;50.842;6.084;2023-02-23T09:17:36;9.09;90.12
66144;SHT31;52947;50.842;6.084;2023-02-23T09:20:05;9.15;90.24
66144;SHT31;52947;50.842;6.084;2023-02-23T09:22:33;9.16;90.30
66144;SHT31;52947;50.842;6.084;2023-02-23T09:25:04;9.13;90.12
66144;SHT31;52947;50.842;6.084;2023-02-23T09:27:32;9.09;90.30
66144;SHT31;52947;50.842;6.084;2023-02-23T09:30:00;9.23;90.44
66144;SHT31;52947;50.842;6.084;2023-02-23T09:32:27;9.19;90.01
66144;SHT31;52947;50.842;6.084;2023-02-23T09:34:56;9.20;90.06
66144;SHT31;52947;50.842;6.084;2023-02-23T09:37:24;9.06;90.34
66144;SHT31;52947;50.842;6.084;2023-02-23T09:39:51;9.06;90.27
66144;SHT31;52947;50.842;6.084;2023-02-23T09:42:30;8.90;90.34
66144;SHT31;52947;50.842;6.084;2023-02-23T09:45:08;8.83;90.71
66144;SHT31;52947;50.842;6.084;2023-02-23T09:47:47;8.86;90.62
66144;SHT31;52947;50.842;6.084;2023-02-23T09:50:21;8.86;90.58
66144;SHT31;52947;50.842;6.084;2023-02-23T09:52:53;8.83;90.53
66144;SHT31;52947;50.842;6.084;2023-02-23T09:55:24;8.75;90.86
66144;SHT31;52947;50.842;6.084;2023-02-23T09:57:57;8.73;90.71
66144;SHT31;52947;50.842;6.084;2023-02-23T10:00:33;8.72;91.13
66144;SHT31;52947;50.842;6.084;2023-02-23T10:03:16;8.71;91.18
66144;SHT31;52947;50.842;6.084;2023-02-23T10:05:49;8.71;91.36
66144;SHT31;52947;50.842;6.084;2023-02-23T10:08:32;8.72;91.18
66144;SHT31;52947;50.842;6.084;2023-02-23T10:11:10;8.68;91.23
66144;SHT31;52947;50.842;6.084;2023-02-23T10:13:51;8.58;91.14
66144;SHT31;52947;50.842;6.084;2023-02-23T10:16:29;8.59;91.54
66144;SHT31;52947;50.842;6.084;2023-02-23T10:19:04;8.52;91.39
66144;SHT31;52947;50.842;6.084;2023-02-23T10:21:35;8.59;91.28
66144;SHT31;52947;50.842;6.084;2023-02-23T10:24:09;8.61;91.36
66144;SHT31;52947;50.842;6.084;2023-02-23T10:26:41;8.48;91.21
66144;SHT31;52947;50.842;6.084;2023-02-23T10:29:22;8.31;91.39
66144;SHT31;52947;50.842;6.084;2023-02-23T10:31:55;8.25;91.53
66144;SHT31;52947;50.842;6.084;2023-02-23T10:34:26;8.27;91.55
66144;SHT31;52947;50.842;6.084;2023-02-23T10:36:58;8.34;91.52
66144;SHT31;52947;50.842;6.084;2023-02-23T10:39:28;8.30;91.30
66144;SHT31;52947;50.842;6.084;2023-02-23T10:41:57;8.25;90.97
66144;SHT31;52947;50.842;6.084;2023-02-23T10:44:28;8.41;91.26
66144;SHT31;52947;50.842;6.084;2023-02-23T10:46:58;8.45;91.14
66144;SHT31;52947;50.842;6.084;2023-02-23T10:49:40;8.51;91.12
66144;SHT31;52947;50.842;6.084;2023-02-23T10:52:10;8.49;91.13
66144;SHT31;52947;50.842;6.084;2023-02-23T10:54:42;8.56;90.95
66144;SHT31;52947;50.842;6.084;2023-02-23T10:57:18;8.55;90.53
66144;SHT31;52947;50.842;6.084;2023-02-23T11:00:05;8.47;90.70
66144;SHT31;52947;50.842;6.084;2023-02-23T11:02:34;8.48;90.58
66144;SHT31;52947;50.842;6.084;2023-02-23T11:05:04;8.40;90.66
66144;SHT31;52947;50.842;6.084;2023-02-23T11:07:33;8.52;90.84
66144;SHT31;52947;50.842;6.084;2023-02-23T11:10:23;8.41;90.89
66144;SHT31;52947;50.842;6.084;2023-02-23T11:12:51;8.31;90.72
66144;SHT31;52947;50.842;6.084;2023-02-23T11:15:27;8.18;90.91
66144;SHT31;52947;50.842;6.084;2023-02-23T11:18:19;8.20;91.05
66144;SHT31;52947;50.842;6.084;2023-02-23T11:20:48;8.21;91.07
66144;SHT31;52947;50.842;6.084;2023-02-23T11:23:21;8.25;91.27
66144;SHT31;52947;50.842;6.084;2023-02-23T11:25:51;8.24;91.02
66144;SHT31;52947;50.842;6.084;2023-02-23T11:28:25;8.18;90.80
66144;SHT31;52947;50.842;6.084;2023-02-23T11:31:01;8.06;90.99
66144;SHT31;52947;50.842;6.084;2023-02-23T11:33:32;8.11;90.96
66144;SHT31;52947;50.842;6.084;2023-02-23T11:36:15;8.10;91.38
66144;SHT31;52947;50.842;6.084;2023-02-23T11:38:45;8.24;91.10
66144;SHT31;52947;50.842;6.084;2023-02-23T11:41:17;8.25;90.89
66144;SHT31;52947;50.842;6.084;2023-02-23T11:43:47;8.35;90.55
66144;SHT31;52947;50.842;6.084;2023-02-23T11:46:17;8.35;90.63
66144;SHT31;52947;50.842;6.084;2023-02-23T11:48:49;8.35;90.74
66144;SHT31;52947;50.842;6.084;2023-02-23T11:51:26;8.34;90.41
66144;SHT31;52947;50.842;6.084;2023-02-23T11:53:56;8.38;90.35
66144;SHT31;52947;50.842;6.084;2023-02-23T11:56:25;8.44;90.25
66144;SHT31;52947;50.842;6.084;2023-02-23T11:58:56;8.47;90.05
66144;SHT31;52947;50.842;6.084;2023-02-23T12:01:37;8.42;89.93
66144;SHT31;52947;50.842;6.084;2023-02-23T12:04:08;8.35;90.17
66144;SHT31;52947;50.842;6.084;2023-02-23T12:06:39;8.25;90.41
66144;SHT31;52947;50.842;6.084;2023-02-23T12:09:14;8.20;90.59
66144;SHT31;52947;50.842;6.084;2023-02-23T12:11:48;8.23;90.31
66144;SHT31;52947;50.842;6.084;2023-02-23T12:14:25;8.27;90.57
66144;SHT31;52947;50.842;6.084;2023-02-23T12:17:00;8.27;90.20
66144;SHT31;52947;50.842;6.084;2023-02-23T12:19:33;8.28;89.85
66144;SHT31;52947;50.842;6.084;2023-02-23T12:22:06;8.35;90.12
66144;SHT31;52947;50.842;6.084;2023-02-23T12:24:42;8.45;89.95
66144;SHT31;52947;50.842;6.084;2023-02-23T12:27:14;8.56;90.06
66144;SHT31;52947;50.842;6.084;2023-02-23T12:30:02;8.75;90.11
66144;SHT31;52947;50.842;6.084;2023-02-23T12:32:44;8.90;89.72
66144;SHT31;52947;50.842;6.084;2023-02-23T12:35:17;9.05;89.15
66144;SHT31;52947;50.842;6.084;2023-02-23T12:37:51;9.07;89.27
66144;SHT31;52947;50.842;6.084;2023-02-23T12:40:23;9.12;88.80
66144;SHT31;52947;50.842;6.084;2023-02-23T12:42:58;9.07;88.15
66144;SHT31;52947;50.842;6.084;2023-02-23T12:45:33;9.20;87.75
66144;SHT31;52947;50.842;6.084;2023-02-23T12:48:10;9.13;87.25
66144;SHT31;52947;50.842;6.084;2023-02-23T12:50:40;9.31;87.26
66144;SHT31;52947;50.842;6.084;2023-02-23T12:53:18;9.94;86.37
66144;SHT31;52947;50.842;6.084;2023-02-23T12:56:02;10.22;85.57
66144;SHT31;52947;50.842;6.084;2023-02-23T12:58:37;10.48;85.16
66144;SHT31;52947;50.842;6.084;2023-02-23T13:01:08;10.57;84.48
66144;SHT31;52947;50.842;6.084;2023-02-23T13:04:03;10.70;84.45
66144;SHT31;52947;50.842;6.084;2023-02-23T13:06:38;10.81;84.09
66144;SHT31;52947;50.842;6.084;2023-02-23T13:09:23;10.66;83.29
66144;SHT31;52947;50.842;6.084;2023-02-23T13:12:09;10.77;83.89
66144;SHT31;52947;50.842;6.084;2023-02-23T13:14:44;10.36;83.72
66144;SHT31;52947;50.842;6.084;2023-02-23T13:17:26;10.23;84.40
66144;SHT31;52947;50.842;6.084;2023-02-23T13:19:58;10.05;85.26
66144;SHT31;52947;50.842;6.084;2023-02-23T13:22:32;9.84;85.12
66144;SHT31;52947;50.842;6.084;2023-02-23T13:25:14;9.57;85.82
66144;SHT31;52947;50.842;6.084;2023-02-23T13:27:49;9.61;86.29
66144;SHT31;52947;50.842;6.084;2023-02-23T13:30:18;9.68;86.25
66144;SHT31;52947;50.842;6.084;2023-02-23T13:32:48;9.58;85.79
66144;SHT31;52947;50.842;6.084;2023-02-23T13:35:18;9.64;85.45
66144;SHT31;52947;50.842;6.084;2023-02-23T13:37:49;9.61;85.62
66144;SHT31;52947;50.842;6.084;2023-02-23T13:40:28;9.62;85.44
66144;SHT31;52947;50.842;6.084;2023-02-23T13:43:05;9.68;85.14
66144;SHT31;52947;50.842;6.084;2023-02-23T13:45:55;9.68;84.89
66144;SHT31;52947;50.842;6.084;2023-02-23T13:48:40;9.64;85.46
66144;SHT31;52947;50.842;6.084;2023-02-23T13:51:31;9.57;86.16
66144;SHT31;52947;50.842;6.084;2023-02-23T13:54:05;9.67;86.12
66144;SHT31;52947;50.842;6.084;2023-02-23T13:56:41;9.51;85.94
66144;SHT31;52947;50.842;6.084;2023-02-23T13:59:16;9.20;85.64
66144;SHT31;52947;50.842;6.084;2023-02-23T14:01:46;9.22;86.40
66144;SHT31;52947;50.842;6.084;2023-02-23T14:04:19;9.22;86.48
66144;SHT31;52947;50.842;6.084;2023-02-23T14:06:54;9.24;85.36
66144;SHT31;52947;50.842;6.084;2023-02-23T14:09:28;9.36;85.91
66144;SHT31;52947;50.842;6.084;2023-02-23T14:12:03;9.37;85.77
66144;SHT31;52947;50.842;6.084;2023-02-23T14:14:44;9.43;85.94
66144;SHT31;52947;50.842;6.084;2023-02-23T14:17:54;9.36;86.56
66144;SHT31;52947;50.842;6.084;2023-02-23T14:20:41;9.19;86.54
66144;SHT31;52947;50.842;6.084;2023-02-23T14:23:16;9.33;86.13
66144;SHT31;52947;50.842;6.084;2023-02-23T14:26:15;9.36;86.06
66144;SHT31;52947;50.842;6.084;2023-02-23T14:28:45;9.26;84.97
66144;SHT31;52947;50.842;6.084;2023-02-23T14:31:21;9.19;85.21
66144;SHT31;52947;50.842;6.084;2023-02-23T14:33:57;9.24;85.69
66144;SHT31;52947;50.842;6.084;2023-02-23T14:36:34;9.26;86.05
66144;SHT31;52947;50.842;6.084;2023-02-23T14:39:07;9.27;85.65
66144;SHT31;52947;50.842;6.084;2023-02-23T14:41:40;9.30;85.48
66144;SHT31;52947;50.842;6.084;2023-02-23T14:44:13;9.26;85.37
66144;SHT31;52947;50.842;6.084;2023-02-23T14:47:00;9.07;85.83
66144;SHT31;52947;50.842;6.084;2023-02-23T14:49:31;8.93;86.03
66144;SHT31;52947;50.842;6.084;2023-02-23T14:52:05;8.86;85.82
66144;SHT31;52947;50.842;6.084;2023-02-23T14:54:36;8.83;85.92
66144;SHT31;52947;50.842;6.084;2023-02-23T14:57:13;8.78;85.91
66144;SHT31;52947;50.842;6.084;2023-02-23T14:59:43;8.76;86.03
66144;SHT31;52947;50.842;6.084;2023-02-23T15:02:17;8.80;85.99
66144;SHT31;52947;50.842;6.084;2023-02-23T15:04:45;8.75;86.27
66144;SHT31;52947;50.842;6.084;2023-02-23T15:07:16;8.78;85.94
66144;SHT31;52947;50.842;6.084;2023-02-23T15:09:54;8.71;86.21
66144;SHT31;52947;50.842;6.084;2023-02-23T15:12:24;8.71;86.23
66144;SHT31;52947;50.842;6.084;2023-02-23T15:14:56;8.59;86.28
66144;SHT31;52947;50.842;6.084;2023-02-23T15:17:26;8.58;86.39
66144;SHT31;52947;50.842;6.084;2023-02-23T15:19:59;8.56;86.55
66144;SHT31;52947;50.842;6.084;2023-02-23T15:22:42;8.58;86.28
66144;SHT31;52947;50.842;6.084;2023-02-23T15:25:15;8.61;86.61
66144;SHT31;52947;50.842;6.084;2023-02-23T15:27:44;8.59;86.77
66144;SHT31;52947;50.842;6.084;2023-02-23T15:30:24;8.61;86.85
66144;SHT31;52947;50.842;6.084;2023-02-23T15:33:01;8.59;86.98
66144;SHT31;52947;50.842;6.084;2023-02-23T15:35:30;8.61;87.08
66144;SHT31;52947;50.842;6.084;2023-02-23T15:38:07;8.59;87.36
66144;SHT31;52947;50.842;6.084;2023-02-23T15:40:58;8.54;87.31
66144;SHT31;52947;50.842;6.084;2023-02-23T15:43:28;8.55;87.22
66144;SHT31;52947;50.842;6.084;2023-02-23T15:45:58;8.52;86.63
66144;SHT31;52947;50.842;6.084;2023-02-23T15:48:40;8.45;86.86
66144;SHT31;52947;50.842;6.084;2023-02-23T15:51:21;8.41;86.83
66144;SHT31;52947;50.842;6.084;2023-02-23T15:53:49;8.35;87.17
66144;SHT31;52947;50.842;6.084;2023-02-23T15:56:24;8.35;86.99
66144;SHT31;52947;50.842;6.084;2023-02-23T15:58:55;8.37;87.25
66144;SHT31;52947;50.842;6.084;2023-02-23T16:01:25;8.30;87.56
66144;SHT31;52947;50.842;6.084;2023-02-23T16:03:58;8.28;87.75
66144;SHT31;52947;50.842;6.084;2023-02-23T16:06:31;8.21;87.76
66144;SHT31;52947;50.842;6.084;2023-02-23T16:09:01;8.18;87.44
66144;SHT31;52947;50.842;6.084;2023-02-23T16:11:34;8.17;86.91
66144;SHT31;52947;50.842;6.084;2023-02-23T16:14:03;8.18;87.12
66144;SHT31;52947;50.842;6.084;2023-02-23T16:16:33;8.21;86.46
66144;SHT31;52947;50.842;6.084;2023-02-23T16:19:02;8.24;86.37
66144;SHT31;52947;50.842;6.084;2023-02-23T16:21:31;8.20;86.69
66144;SHT31;52947;50.842;6.084;2023-02-23T16:24:06;8.17;86.96
66144;SHT31;52947;50.842;6.084;2023-02-23T16:26:40;8.18;87.27